createdAt,value
2018-02-25T00:00:51.455Z,2.1
2018-02-25T00:01:53.940Z,2.1
2018-02-25T00:02:56.402Z,2.1
2018-02-25T00:03:58.902Z,1.8
2018-02-25T00:05:01.441Z,1.6
2018-02-25T00:06:03.875Z,2.4
2018-02-25T00:07:06.286Z,2.4
2018-02-25T00:08:08.741Z,2.3
2018-02-25T00:09:11.201Z,2.2
2018-02-25T00:10:13.660Z,2
2018-02-25T00:11:16.076Z,2.1
2018-02-25T00:12:20.958Z,1.8
2018-02-25T00:13:23.412Z,1.9
2018-02-25T00:14:25.885Z,2
2018-02-25T00:15:28.273Z,1.9
2018-02-25T00:16:30.740Z,1.8
2018-02-25T00:17:33.193Z,2
2018-02-25T00:18:35.691Z,1.8
2018-02-25T00:19:38.128Z,1.4
2018-02-25T00:20:40.564Z,1.2
2018-02-25T00:21:43.034Z,1.1
2018-02-25T00:22:45.485Z,1.7
2018-02-25T00:23:47.870Z,1.4
2018-02-25T00:24:50.334Z,1.3
2018-02-25T00:25:52.867Z,1.1
2018-02-25T00:26:55.313Z,0.9
2018-02-25T00:27:57.738Z,1
2018-02-25T00:29:00.142Z,1
2018-02-25T00:30:02.856Z,1
2018-02-25T00:31:05.276Z,0.8
2018-02-25T00:32:07.849Z,1.1
2018-02-25T00:33:10.322Z,1.4
2018-02-25T00:34:12.766Z,1.5
2018-02-25T00:35:16.828Z,0.9
2018-02-25T00:36:19.282Z,1
2018-02-25T00:37:21.756Z,1
2018-02-25T00:38:24.181Z,1
2018-02-25T00:39:26.694Z,0.6
2018-02-25T00:40:29.110Z,0.9
2018-02-25T00:41:31.547Z,0.8
2018-02-25T00:42:33.985Z,0.9
2018-02-25T00:43:36.442Z,1.3
2018-02-25T00:44:38.878Z,1.2
2018-02-25T00:45:42.257Z,0.7
2018-02-25T00:46:44.697Z,0.7
2018-02-25T00:47:47.181Z,0.9
2018-02-25T00:48:49.643Z,0.8
2018-02-25T00:49:52.055Z,1.1
2018-02-25T00:50:54.506Z,1
2018-02-25T00:51:56.947Z,0.9
2018-02-25T00:52:59.341Z,1
2018-02-25T00:54:02.007Z,1
2018-02-25T00:55:04.418Z,0.9
2018-02-25T00:56:06.841Z,0.8
2018-02-25T00:57:09.261Z,0.8
2018-02-25T00:58:11.796Z,0.6
2018-02-25T00:59:15.363Z,0.6
2018-02-25T01:00:17.912Z,0.6
2018-02-25T01:01:21.175Z,0
2018-02-25T01:02:23.606Z,0.1
2018-02-25T01:03:26.112Z,0.6
2018-02-25T01:04:28.575Z,0.5
2018-02-25T01:05:32.074Z,0.7
2018-02-25T01:06:34.453Z,0.2
2018-02-25T01:07:37.144Z,0.5
2018-02-25T01:08:39.601Z,0.1
2018-02-25T01:09:42.110Z,0.8
2018-02-25T01:10:44.554Z,0.9
2018-02-25T01:11:46.955Z,0
2018-02-25T01:12:49.354Z,0.1
2018-02-25T01:13:51.808Z,0.3
2018-02-25T01:14:54.229Z,0.7
2018-02-25T01:15:56.776Z,0.4
2018-02-25T01:16:59.247Z,0.5
2018-02-25T01:18:01.781Z,0
2018-02-25T01:19:04.194Z,-0.2
2018-02-25T01:20:06.575Z,-0.2
2018-02-25T01:21:09.003Z,-0.1
2018-02-25T01:22:11.436Z,-0.4
2018-02-25T01:23:13.963Z,-0.3
2018-02-25T01:24:16.378Z,-0.1
2018-02-25T01:25:18.756Z,-0.3
2018-02-25T01:26:21.196Z,-0.4
2018-02-25T01:27:23.607Z,-0.5
2018-02-25T01:28:26.019Z,-0.3
2018-02-25T01:29:28.443Z,-0.3
2018-02-25T01:30:30.843Z,-0.7
2018-02-25T01:31:33.263Z,-0.7
2018-02-25T01:32:35.696Z,-0.6
2018-02-25T01:33:38.206Z,-0.6
2018-02-25T01:34:40.746Z,-0.9
2018-02-25T01:35:43.633Z,-0.9
2018-02-25T01:36:46.053Z,-1
2018-02-25T01:37:49.150Z,-1
2018-02-25T01:38:52.048Z,-0.7
2018-02-25T01:39:54.475Z,-0.6
2018-02-25T01:40:56.895Z,-0.6
2018-02-25T01:41:59.272Z,-1
2018-02-25T01:43:01.747Z,-0.5
2018-02-25T01:44:04.141Z,-0.7
2018-02-25T01:45:10.629Z,-0.6
2018-02-25T01:46:13.183Z,-1.2
2018-02-25T01:47:15.604Z,-0.7
2018-02-25T01:48:18.047Z,-0.7
2018-02-25T01:49:20.492Z,-0.7
2018-02-25T01:50:23.302Z,-1.1
2018-02-25T01:51:26.189Z,-1
2018-02-25T01:52:28.949Z,-1.1
2018-02-25T01:53:31.367Z,-0.8
2018-02-25T01:54:33.777Z,-0.5
2018-02-25T01:55:36.291Z,-1.1
2018-02-25T01:56:38.728Z,-0.9
2018-02-25T01:57:41.213Z,-1.1
2018-02-25T01:58:43.643Z,-1.6
2018-02-25T01:59:46.027Z,-1.5
2018-02-25T02:00:48.473Z,-1.1
2018-02-25T02:01:51.593Z,-1.4
2018-02-25T02:02:54.006Z,-1.2
2018-02-25T02:03:56.486Z,-1
2018-02-25T02:04:58.922Z,-0.8
2018-02-25T02:06:01.345Z,-1.2
2018-02-25T02:07:03.755Z,-0.6
2018-02-25T02:08:06.259Z,-1
2018-02-25T02:09:08.692Z,-1.4
2018-02-25T02:10:11.096Z,-1.2
2018-02-25T02:11:13.566Z,-1.6
2018-02-25T02:12:17.164Z,-1.1
2018-02-25T02:13:19.586Z,-1.3
2018-02-25T02:14:22.099Z,-1.4
2018-02-25T02:15:24.511Z,-1.4
2018-02-25T02:16:27.166Z,-1.2
2018-02-25T02:17:29.580Z,-0.8
2018-02-25T02:18:31.986Z,-1.4
2018-02-25T02:19:34.477Z,-1.4
2018-02-25T02:20:36.856Z,-1.5
2018-02-25T02:21:39.265Z,-1.3
2018-02-25T02:22:41.698Z,-1.5
2018-02-25T02:23:44.151Z,-1.4
2018-02-25T02:24:46.611Z,-1.5
2018-02-25T02:25:49.047Z,-1.3
2018-02-25T02:26:51.549Z,-1.3
2018-02-25T02:27:53.981Z,-1.3
2018-02-25T02:28:56.426Z,-1.4
2018-02-25T02:29:58.877Z,-1.4
2018-02-25T02:31:01.414Z,-1.6
2018-02-25T02:32:03.860Z,-1.6
2018-02-25T02:33:06.294Z,-1.5
2018-02-25T02:34:08.752Z,-1.4
2018-02-25T02:35:11.435Z,-1.4
2018-02-25T02:36:15.727Z,-1.5
2018-02-25T02:37:18.294Z,-1.5
2018-02-25T02:38:20.746Z,-1.5
2018-02-25T02:39:23.232Z,-1.4
2018-02-25T02:40:25.686Z,-1.6
2018-02-25T02:41:28.154Z,-1.3
2018-02-25T02:42:30.607Z,-1.3
2018-02-25T02:43:33.069Z,-1.6
2018-02-25T02:44:35.530Z,-1.7
2018-02-25T02:45:38.009Z,-1.6
2018-02-25T02:46:40.464Z,-1.7
2018-02-25T02:47:42.884Z,-2
2018-02-25T02:48:45.348Z,-2.2
2018-02-25T02:49:47.753Z,-1.6
2018-02-25T02:50:50.522Z,-2
2018-02-25T02:51:52.937Z,-1.8
2018-02-25T02:52:55.321Z,-2.3
2018-02-25T02:53:57.834Z,-2.3
2018-02-25T02:55:00.246Z,-1.9
2018-02-25T02:56:02.721Z,-2
2018-02-25T02:57:05.126Z,-1.8
2018-02-25T02:58:07.551Z,-1.6
2018-02-25T02:59:09.973Z,-2
2018-02-25T03:00:12.433Z,-2.2
2018-02-25T03:01:14.859Z,-2.4
2018-02-25T03:02:17.287Z,-2
2018-02-25T03:03:19.671Z,-2
2018-02-25T03:04:22.090Z,-2.2
2018-02-25T03:05:24.548Z,-2
2018-02-25T03:06:31.834Z,-1.7
2018-02-25T03:07:34.975Z,-2.6
2018-02-25T03:08:37.373Z,-2.2
2018-02-25T03:09:39.823Z,-2.2
2018-02-25T03:10:42.305Z,-2
2018-02-25T03:11:44.696Z,-2.2
2018-02-25T03:12:47.131Z,-2.1
2018-02-25T03:13:50.737Z,-2.2
2018-02-25T03:14:53.801Z,-2
2018-02-25T03:15:56.194Z,-2
2018-02-25T03:16:58.600Z,-2.2
2018-02-25T03:18:01.084Z,-2.3
2018-02-25T03:19:03.764Z,-2.3
2018-02-25T03:20:06.180Z,-2.5
2018-02-25T03:21:08.611Z,-2.1
2018-02-25T03:22:11.147Z,-2
2018-02-25T03:23:13.608Z,-2.1
2018-02-25T03:24:16.079Z,-2.3
2018-02-25T03:25:18.467Z,-2.1
2018-02-25T03:26:20.979Z,-2.2
2018-02-25T03:27:23.445Z,-2.1
2018-02-25T03:28:25.862Z,-2.4
2018-02-25T03:29:28.285Z,-2.2
2018-02-25T03:30:30.723Z,-2
2018-02-25T03:31:33.162Z,-2.2
2018-02-25T03:32:35.533Z,-2.4
2018-02-25T03:33:37.923Z,-2.2
2018-02-25T03:34:40.302Z,-1.9
2018-02-25T03:35:42.786Z,-2
2018-02-25T03:36:45.160Z,-2.3
2018-02-25T03:37:47.853Z,-2.3
2018-02-25T03:38:50.263Z,-2.4
2018-02-25T03:39:52.718Z,-2.7
2018-02-25T03:40:55.123Z,-2.2
2018-02-25T03:41:57.542Z,-2.5
2018-02-25T03:42:59.958Z,-2.5
2018-02-25T03:44:02.380Z,-2.4
2018-02-25T03:45:04.862Z,-1.7
2018-02-25T03:46:07.329Z,-1.8
2018-02-25T03:47:09.746Z,-2.7
2018-02-25T03:48:12.134Z,-2.2
2018-02-25T03:49:15.018Z,-2.3
2018-02-25T03:50:17.478Z,-2.5
2018-02-25T03:51:19.886Z,-2.3
2018-02-25T03:52:22.508Z,-2.5
2018-02-25T03:53:25.021Z,-2
2018-02-25T03:54:27.613Z,-2
2018-02-25T03:55:30.907Z,-1.8
2018-02-25T03:56:33.313Z,-2.3
2018-02-25T03:57:35.726Z,-2.5
2018-02-25T03:58:38.142Z,-2.3
2018-02-25T03:59:40.515Z,-2.2
2018-02-25T04:00:42.964Z,-2.3
2018-02-25T04:01:45.350Z,-2.4
2018-02-25T04:02:47.715Z,-2.4
2018-02-25T04:03:50.090Z,-1.8
2018-02-25T04:04:52.514Z,-2.2
2018-02-25T04:05:54.941Z,-1.9
2018-02-25T04:06:57.366Z,-2.5
2018-02-25T04:07:59.790Z,-2.6
2018-02-25T04:09:02.169Z,-2.3
2018-02-25T04:10:04.555Z,-2.4
2018-02-25T04:11:06.943Z,-2.7
2018-02-25T04:12:09.339Z,-2.5
2018-02-25T04:13:11.795Z,-2.5
2018-02-25T04:14:14.195Z,-2.8
2018-02-25T04:15:16.579Z,-2.6
2018-02-25T04:16:19.008Z,-2.7
2018-02-25T04:17:21.413Z,-2.7
2018-02-25T04:18:23.858Z,-2.1
2018-02-25T04:19:26.248Z,-1.9
2018-02-25T04:20:28.649Z,-2.1
2018-02-25T04:21:31.084Z,-2.3
2018-02-25T04:22:33.486Z,-2.3
2018-02-25T04:23:35.944Z,-1.9
2018-02-25T04:24:38.576Z,-2.2
2018-02-25T04:25:41.023Z,-2.6
2018-02-25T04:26:43.417Z,-2.7
2018-02-25T04:27:45.868Z,-2.8
2018-02-25T04:28:48.296Z,-3
2018-02-25T04:29:50.815Z,-2.5
2018-02-25T04:30:53.262Z,-2.5
2018-02-25T04:31:55.674Z,-2.8
2018-02-25T04:32:58.067Z,-2.8
2018-02-25T04:34:00.462Z,-2.7
2018-02-25T04:35:02.961Z,-2.8
2018-02-25T04:36:05.369Z,-2.5
2018-02-25T04:37:07.768Z,-2.8
2018-02-25T04:38:10.233Z,-2.2
2018-02-25T04:39:12.640Z,-2.4
2018-02-25T04:40:15.236Z,-2.2
2018-02-25T04:41:17.686Z,-2.5
2018-02-25T04:42:20.129Z,-2.4
2018-02-25T04:43:22.551Z,-1.7
2018-02-25T04:44:24.956Z,-2
2018-02-25T04:45:27.645Z,-2.3
2018-02-25T04:46:30.043Z,-2.6
2018-02-25T04:47:32.459Z,-2.5
2018-02-25T04:48:34.910Z,-2.7
2018-02-25T04:49:37.335Z,-2.9
2018-02-25T04:50:39.708Z,-3.1
2018-02-25T04:51:42.153Z,-3.2
2018-02-25T04:52:44.610Z,-3
2018-02-25T04:53:47.010Z,-3
2018-02-25T04:54:49.434Z,-2.5
2018-02-25T04:55:52.182Z,-2.4
2018-02-25T04:56:54.550Z,-2.4
2018-02-25T04:57:58.437Z,-2.4
2018-02-25T04:59:00.898Z,-2.9
2018-02-25T05:00:03.327Z,-2.5
2018-02-25T05:01:05.754Z,-2.9
2018-02-25T05:02:08.284Z,-3
2018-02-25T05:03:10.699Z,-3.3
2018-02-25T05:04:13.077Z,-3.3
2018-02-25T05:05:15.487Z,-3
2018-02-25T05:06:17.913Z,-3
2018-02-25T05:07:20.300Z,-2.9
2018-02-25T05:08:22.735Z,-3.2
2018-02-25T05:09:25.147Z,-2.9
2018-02-25T05:10:27.663Z,-2.8
2018-02-25T05:11:30.054Z,-2.7
2018-02-25T05:12:32.493Z,-2.5
2018-02-25T05:13:34.911Z,-2.5
2018-02-25T05:14:37.315Z,-2.5
2018-02-25T05:15:39.768Z,-2.6
2018-02-25T05:16:42.391Z,-2.7
2018-02-25T05:17:44.947Z,-3.1
2018-02-25T05:18:47.343Z,-3.3
2018-02-25T05:19:49.744Z,-3
2018-02-25T05:20:52.227Z,-3.3
2018-02-25T05:21:54.678Z,-2.9
2018-02-25T05:22:57.091Z,-3.1
2018-02-25T05:23:59.462Z,-3.2
2018-02-25T05:25:01.934Z,-2.7
2018-02-25T05:26:04.365Z,-2.8
2018-02-25T05:27:06.817Z,-2.9
2018-02-25T05:28:10.432Z,-2.9
2018-02-25T05:29:12.902Z,-3.5
2018-02-25T05:30:15.382Z,-2.8
2018-02-25T05:31:18.318Z,-3.2
2018-02-25T05:32:20.701Z,-3.5
2018-02-25T05:33:23.202Z,-3.2
2018-02-25T05:34:25.610Z,-3.6
2018-02-25T05:35:28.098Z,-3.4
2018-02-25T05:36:30.525Z,-2.9
2018-02-25T05:37:32.945Z,-2.5
2018-02-25T05:38:35.468Z,-3.1
2018-02-25T05:39:44.618Z,-3.2
2018-02-25T05:40:47.024Z,-3.3
2018-02-25T05:41:49.469Z,-3.1
2018-02-25T05:42:52.947Z,-3.2
2018-02-25T05:43:55.373Z,-3.3
2018-02-25T05:44:57.753Z,-3.5
2018-02-25T05:46:00.146Z,-3.2
2018-02-25T05:47:02.700Z,-3.3
2018-02-25T05:48:05.082Z,-3.7
2018-02-25T05:49:07.500Z,-3.4
2018-02-25T05:50:09.939Z,-3.4
2018-02-25T05:51:12.396Z,-3.7
2018-02-25T05:52:14.785Z,-3.8
2018-02-25T05:53:17.261Z,-3.4
2018-02-25T05:54:19.830Z,-3.1
2018-02-25T05:55:22.793Z,-3.1
2018-02-25T05:56:25.263Z,-2.9
2018-02-25T05:57:27.729Z,-3.1
2018-02-25T05:58:30.201Z,-3.4
2018-02-25T05:59:33.389Z,-3.6
2018-02-25T06:00:37.997Z,-3.9
2018-02-25T06:01:45.200Z,-3.4
2018-02-25T06:02:47.644Z,-3.4
2018-02-25T06:03:50.070Z,-3.9
2018-02-25T06:04:52.533Z,-3.7
2018-02-25T06:05:54.992Z,-3.2
2018-02-25T06:06:57.487Z,-3.2
2018-02-25T06:07:59.862Z,-2.8
2018-02-25T06:09:02.248Z,-2.9
2018-02-25T06:10:04.657Z,-2.9
2018-02-25T06:11:07.115Z,-2.9
2018-02-25T06:12:09.902Z,-3.4
2018-02-25T06:13:12.392Z,-3.5
2018-02-25T06:14:15.061Z,-2.7
2018-02-25T06:15:17.828Z,-2.8
2018-02-25T06:16:20.246Z,-2.9
2018-02-25T06:17:22.727Z,-3.8
2018-02-25T06:18:25.121Z,-3.7
2018-02-25T06:19:27.615Z,-3.6
2018-02-25T06:20:30.061Z,-3.6
2018-02-25T06:21:32.565Z,-3.3
2018-02-25T06:22:35.064Z,-3.2
2018-02-25T06:23:37.650Z,-3.4
2018-02-25T06:24:40.163Z,-3
2018-02-25T06:25:42.698Z,-3.2
2018-02-25T06:58:30.425Z,-0.9
2018-02-25T06:59:32.896Z,-1.2
2018-02-25T07:00:35.353Z,-0.9
2018-02-25T07:01:38.617Z,-0.8
2018-02-25T07:02:41.079Z,-0.8
2018-02-25T07:03:44.708Z,-0.2
2018-02-25T07:04:47.211Z,-0.6
2018-02-25T07:05:49.628Z,-0.3
2018-02-25T07:06:52.107Z,-0.3
2018-02-25T07:07:54.526Z,0
2018-02-25T07:08:56.941Z,-0.1
2018-02-25T07:10:04.364Z,-0.1
2018-02-25T07:11:07.348Z,0.3
2018-02-25T07:12:09.804Z,0.4
2018-02-25T07:13:12.273Z,0
2018-02-25T07:14:14.739Z,0.3
2018-02-25T07:15:17.453Z,0.3
2018-02-25T07:16:19.866Z,0.5
2018-02-25T07:17:22.308Z,0.4
2018-02-25T07:18:24.726Z,0.8
2018-02-25T07:19:32.289Z,0.4
2018-02-25T07:20:39.830Z,0.8
2018-02-25T07:21:42.444Z,0.7
2018-02-25T07:22:44.859Z,0.7
2018-02-25T07:23:47.271Z,1
2018-02-25T07:25:01.594Z,0.8
2018-02-25T07:26:04.603Z,1
2018-02-25T07:27:07.063Z,1.3
2018-02-25T07:28:18.514Z,1.8
2018-02-25T07:29:24.222Z,1.5
2018-02-25T07:30:26.745Z,1.7
2018-02-25T07:31:29.188Z,1.5
2018-02-25T07:32:31.628Z,1.5
2018-02-25T07:33:34.096Z,1.4
2018-02-25T07:34:36.521Z,1.5
2018-02-25T07:35:38.962Z,1.7
2018-02-25T07:36:41.361Z,1.5
2018-02-25T07:37:43.868Z,2
2018-02-25T07:38:46.345Z,2.1
2018-02-25T07:39:48.770Z,2.5
2018-02-25T07:40:51.174Z,3.6
2018-02-25T07:41:53.776Z,5.3
2018-02-25T07:42:56.244Z,6.3
2018-02-25T07:43:58.769Z,6.6
2018-02-25T07:45:01.435Z,6.9
2018-02-25T07:46:04.113Z,7.4
2018-02-25T07:47:06.579Z,7.8
2018-02-25T07:48:09.053Z,7.7
2018-02-25T07:49:11.468Z,7.8
2018-02-25T07:50:13.988Z,7.8
2018-02-25T07:51:18.404Z,8
2018-02-25T07:52:20.858Z,8.1
2018-02-25T07:53:23.368Z,8.1
2018-02-25T07:54:25.824Z,8.2
2018-02-25T07:55:28.250Z,8.3
2018-02-25T07:56:30.715Z,8.4
2018-02-25T07:57:33.217Z,8.6
2018-02-25T07:58:35.693Z,8.6
2018-02-25T07:59:38.210Z,8.7
2018-02-25T08:00:40.590Z,9
2018-02-25T08:01:43.160Z,9.1
2018-02-25T08:02:45.602Z,9.1
2018-02-25T08:03:48.101Z,9.1
2018-02-25T08:04:50.525Z,9.3
2018-02-25T08:05:53.367Z,9.3
2018-02-25T08:06:55.820Z,9.7
2018-02-25T08:07:58.320Z,9.7
2018-02-25T08:09:00.812Z,10
2018-02-25T08:10:03.309Z,10
2018-02-25T08:11:05.879Z,10.3
2018-02-25T08:12:08.373Z,10.4
2018-02-25T08:13:10.829Z,10.4
2018-02-25T08:14:13.283Z,10.5
2018-02-25T08:15:15.752Z,10.7
2018-02-25T08:16:18.968Z,10.9
2018-02-25T08:17:21.464Z,11.1
2018-02-25T08:18:24.006Z,11.1
2018-02-25T08:19:26.443Z,11.2
2018-02-25T08:20:28.905Z,11.5
2018-02-25T08:21:31.372Z,11.6
2018-02-25T08:22:33.965Z,11.8
2018-02-25T08:23:36.469Z,11.9
2018-02-25T08:24:39.106Z,12
2018-02-25T08:25:41.790Z,11.7
2018-02-25T08:26:47.829Z,11.9
2018-02-25T08:27:50.483Z,12
2018-02-25T08:28:53.603Z,12.3
2018-02-25T08:29:56.186Z,12.5
2018-02-25T08:30:58.773Z,12.6
2018-02-25T08:32:01.532Z,12.7
2018-02-25T08:33:04.548Z,12.8
2018-02-25T08:34:07.248Z,12.7
2018-02-25T08:35:09.995Z,12.9
2018-02-25T08:36:12.586Z,13
2018-02-25T08:37:15.273Z,13.3
2018-02-25T08:38:25.510Z,13.1
2018-02-25T08:39:28.065Z,13.4
2018-02-25T08:40:30.651Z,13.3
2018-02-25T08:41:33.151Z,13.7
2018-02-25T08:42:38.521Z,13.8
2018-02-25T08:43:41.201Z,13.8
2018-02-25T08:44:43.898Z,13.7
2018-02-25T08:45:46.536Z,13.7
2018-02-25T08:46:49.214Z,13.9
2018-02-25T08:47:51.755Z,14.1
2018-02-25T08:48:54.609Z,13.9
2018-02-25T08:49:57.252Z,14.2
2018-02-25T08:51:00.023Z,14.5
2018-02-25T08:52:02.848Z,14.6
2018-02-25T08:53:05.552Z,14.4
2018-02-25T08:54:08.386Z,14.2
2018-02-25T08:55:11.032Z,14.3
2018-02-25T08:56:14.389Z,14.2
2018-02-25T08:57:17.385Z,14.4
2018-02-25T08:58:19.936Z,14.6
2018-02-25T08:59:22.654Z,14.5
